Kuin — EA5984 — position and weather

sailwx.info

Track history (hours):
 
Tides and Currents Weather Stations Pressure Air Temp Water Temp Dewpoint Dewpoint Depression Visibility Wind Speed Wind Dir Waves Ship Positions

Kuin

Last reported at 2017-Oct-15 16:27 UTC. Time now 2017-Oct-18 11:18 UTC.
Position N 43°20' W 003°01'.

Length 12 m.

Type: Sailing vessel. MMSI: 224120260.

Date/timePositionNaut miles runAvg speedWind from/ knotsBaromVisibWave heightAir tempDewpointWater temp
2017-Oct-15 16:27N 43°20' W 003°01'0 0.1
2017-Oct-15 16:00N 43°20' W 003°01'0 0.9
2017-Oct-15 15:30N 43°20' W 003°01'0 0.7
2017-Oct-15 15:00N 43°20' W 003°01'0 0.2
2017-Oct-15 14:00N 43°20' W 003°01'0 0.5
2017-Oct-15 13:29N 43°20' W 003°01'0 0.1
2017-Oct-15 12:59N 43°20' W 003°01'0 0.8
2017-Oct-15 12:29N 43°20' W 003°01'0 0.0
2017-Oct-15 11:59N 43°20' W 003°01'0 0.2
2017-Oct-15 11:30N 43°20' W 003°01'2 3.1
2017-Oct-15 11:00N 43°21' W 003°03'0 0.2
2017-Oct-15 10:30N 43°21' W 003°03'2 3.1
2017-Oct-15 10:00N 43°20' W 003°02'1 1.2
2017-Oct-15 09:30N 43°20' W 003°01'0 0.0
2017-Oct-14 16:26N 43°20' W 003°01'0 0.1
2017-Oct-14 16:00N 43°20' W 003°01'0 0.1
2017-Oct-14 15:30N 43°20' W 003°01'0 0.0
2017-Oct-14 14:59N 43°20' W 003°01'0 0.1
2017-Oct-14 14:30N 43°20' W 003°01'0 0.1
2017-Oct-14 14:00N 43°20' W 003°01'0 0.1
2017-Oct-14 13:30N 43°20' W 003°01'0 0.0
2017-Oct-14 13:00N 43°20' W 003°01'0 0.3
2017-Oct-14 12:30N 43°20' W 003°01'2 3.8
2017-Oct-14 12:00N 43°22' W 003°03'1 1.4
2017-Oct-14 11:30N 43°22' W 003°03'2 3.5
2017-Oct-14 11:01N 43°21' W 003°02'1 1.7
2017-Oct-14 10:31N 43°20' W 003°01'0 0.0
2017-Oct-12 16:27N 43°20' W 003°01'1 1.3
2017-Oct-12 16:00N 43°21' W 003°02'2 3.8
2017-Oct-12 15:30N 43°22' W 003°03'2 4.9
2017-Oct-12 15:00N 43°24' W 003°01'6 6.2
2017-Oct-12 14:01N 43°29' W 002°55'0 6.7
2017-Oct-12 13:58N 43°29' W 002°55'3 5.1
2017-Oct-12 13:28N 43°30' W 002°51'3 6.4
2017-Oct-12 13:00N 43°28' W 002°48'1 2.7
2017-Oct-12 12:30N 43°27' W 002°49'3 5.4
2017-Oct-12 12:00N 43°28' W 002°52'6 3.7
2017-Oct-12 10:29N 43°27' W 002°59'3 5.2
2017-Oct-12 10:00N 43°25' W 003°01'2 4.4
2017-Oct-12 09:30N 43°23' W 003°03'2 4.5
2017-Oct-12 09:00N 43°21' W 003°02'  
2017-Oct-08 16:59N 43°20' W 003°01'3 4.0
2017-Oct-08 16:19N 43°23' W 003°02'2 6.0
2017-Oct-08 15:58N 43°24' W 003°00'7 6.2
2017-Oct-08 14:50N 43°27' W 002°51'5 6.3
2017-Oct-08 14:03N 43°28' W 002°45'0 6.5
2017-Oct-08 14:00N 43°28' W 002°44'3 6.3
2017-Oct-08 13:30N 43°29' W 002°40'3 6.3
2017-Oct-08 13:00N 43°29' W 002°36'3 6.1
2017-Oct-08 12:30N 43°29' W 002°31'3 6.0
2017-Oct-08 11:59N 43°29' W 002°27'7 5.7
2017-Oct-08 10:43N 43°29' W 002°17'29 3.6
2017-Oct-08 02:35N 43°30' W 001°37'1 5.4
2017-Oct-08 02:28N 43°30' W 001°37'12 5.6
2017-Oct-08 00:20N 43°23' W 001°51'2 5.4
2017-Oct-08 00:00N 43°22' W 001°53'3 1.3
2017-Oct-07 21:48N 43°20' W 001°56'1 4.7
2017-Oct-07 21:29N 43°21' W 001°58'3 5.3
2017-Oct-07 20:59N 43°21' W 002°01'3 5.3
2017-Oct-07 20:30N 43°20' W 002°05'3 5.5
2017-Oct-07 20:00N 43°20' W 002°09'3 6.2
2017-Oct-07 19:30N 43°20' W 002°13'10 3.2
2017-Oct-07 16:19N 43°21' W 002°27'2 5.1
2017-Oct-07 15:58N 43°22' W 002°29'2 4.8
2017-Oct-07 15:27N 43°23' W 002°32'2 4.9
2017-Oct-07 15:00N 43°24' W 002°34'3 4.8
2017-Oct-07 14:28N 43°25' W 002°38'2 5.0
2017-Oct-07 14:00N 43°26' W 002°40'2 3.9
2017-Oct-07 13:30N 43°25' W 002°43'0 0.0
2017-Oct-07 13:00N 43°25' W 002°43'0 0.0
2017-Oct-07 12:30N 43°25' W 002°43'1 2.3
2017-Oct-07 12:00N 43°26' W 002°43'4 4.2
2017-Oct-07 11:07N 43°27' W 002°48'1 5.0
2017-Oct-07 11:00N 43°27' W 002°49'7 5.0
2017-Oct-07 09:37N 43°26' W 002°58'1 5.9
2017-Oct-07 09:30N 43°25' W 002°59'3 5.9
2017-Oct-07 09:00N 43°23' W 003°02'3 5.6
2017-Oct-07 08:30N 43°20' W 003°02'  
Track history (hours):
 
Tides and Currents Weather Stations Pressure Air Temp Water Temp Dewpoint Dewpoint Depression Visibility Wind Speed Wind Dir Waves Ship Positions

Kuin

Last reported at 2017-Oct-15 16:27 UTC. Time now 2017-Oct-18 11:18 UTC.
Position N 43°20' W 003°01'.

Length 12 m.

Type: Sailing vessel. MMSI: 224120260.

Date/timePositionNaut miles runAvg speedWind from/ knotsBaromVisibWave heightAir tempDewpointWater temp
2017-Oct-15 16:27N 43°20' W 003°01'0 0.1
2017-Oct-15 16:00N 43°20' W 003°01'0 0.9
2017-Oct-15 15:30N 43°20' W 003°01'0 0.7
2017-Oct-15 15:00N 43°20' W 003°01'0 0.2
2017-Oct-15 14:00N 43°20' W 003°01'0 0.5
2017-Oct-15 13:29N 43°20' W 003°01'0 0.1
2017-Oct-15 12:59N 43°20' W 003°01'0 0.8
2017-Oct-15 12:29N 43°20' W 003°01'0 0.0
2017-Oct-15 11:59N 43°20' W 003°01'0 0.2
2017-Oct-15 11:30N 43°20' W 003°01'2 3.1
2017-Oct-15 11:00N 43°21' W 003°03'0 0.2
2017-Oct-15 10:30N 43°21' W 003°03'2 3.1
2017-Oct-15 10:00N 43°20' W 003°02'1 1.2
2017-Oct-15 09:30N 43°20' W 003°01'0 0.0
2017-Oct-14 16:26N 43°20' W 003°01'0 0.1
2017-Oct-14 16:00N 43°20' W 003°01'0 0.1
2017-Oct-14 15:30N 43°20' W 003°01'0 0.0
2017-Oct-14 14:59N 43°20' W 003°01'0 0.1
2017-Oct-14 14:30N 43°20' W 003°01'0 0.1
2017-Oct-14 14:00N 43°20' W 003°01'0 0.1
2017-Oct-14 13:30N 43°20' W 003°01'0 0.0
2017-Oct-14 13:00N 43°20' W 003°01'0 0.3
2017-Oct-14 12:30N 43°20' W 003°01'2 3.8
2017-Oct-14 12:00N 43°22' W 003°03'1 1.4
2017-Oct-14 11:30N 43°22' W 003°03'2 3.5
2017-Oct-14 11:01N 43°21' W 003°02'1 1.7
2017-Oct-14 10:31N 43°20' W 003°01'0 0.0
2017-Oct-12 16:27N 43°20' W 003°01'1 1.3
2017-Oct-12 16:00N 43°21' W 003°02'2 3.8
2017-Oct-12 15:30N 43°22' W 003°03'2 4.9
2017-Oct-12 15:00N 43°24' W 003°01'6 6.2
2017-Oct-12 14:01N 43°29' W 002°55'0 6.7
2017-Oct-12 13:58N 43°29' W 002°55'3 5.1
2017-Oct-12 13:28N 43°30' W 002°51'3 6.4
2017-Oct-12 13:00N 43°28' W 002°48'1 2.7
2017-Oct-12 12:30N 43°27' W 002°49'3 5.4
2017-Oct-12 12:00N 43°28' W 002°52'6 3.7
2017-Oct-12 10:29N 43°27' W 002°59'3 5.2
2017-Oct-12 10:00N 43°25' W 003°01'2 4.4
2017-Oct-12 09:30N 43°23' W 003°03'2 4.5
2017-Oct-12 09:00N 43°21' W 003°02'  
2017-Oct-08 16:59N 43°20' W 003°01'3 4.0
2017-Oct-08 16:19N 43°23' W 003°02'2 6.0
2017-Oct-08 15:58N 43°24' W 003°00'7 6.2
2017-Oct-08 14:50N 43°27' W 002°51'5 6.3
2017-Oct-08 14:03N 43°28' W 002°45'0 6.5
2017-Oct-08 14:00N 43°28' W 002°44'3 6.3
2017-Oct-08 13:30N 43°29' W 002°40'3 6.3
2017-Oct-08 13:00N 43°29' W 002°36'3 6.1
2017-Oct-08 12:30N 43°29' W 002°31'3 6.0
2017-Oct-08 11:59N 43°29' W 002°27'7 5.7
2017-Oct-08 10:43N 43°29' W 002°17'29 3.6
2017-Oct-08 02:35N 43°30' W 001°37'1 5.4
2017-Oct-08 02:28N 43°30' W 001°37'12 5.6
2017-Oct-08 00:20N 43°23' W 001°51'2 5.4
2017-Oct-08 00:00N 43°22' W 001°53'3 1.3
2017-Oct-07 21:48N 43°20' W 001°56'1 4.7
2017-Oct-07 21:29N 43°21' W 001°58'3 5.3
2017-Oct-07 20:59N 43°21' W 002°01'3 5.3
2017-Oct-07 20:30N 43°20' W 002°05'3 5.5
2017-Oct-07 20:00N 43°20' W 002°09'3 6.2
2017-Oct-07 19:30N 43°20' W 002°13'10 3.2
2017-Oct-07 16:19N 43°21' W 002°27'2 5.1
2017-Oct-07 15:58N 43°22' W 002°29'2 4.8
2017-Oct-07 15:27N 43°23' W 002°32'2 4.9
2017-Oct-07 15:00N 43°24' W 002°34'3 4.8
2017-Oct-07 14:28N 43°25' W 002°38'2 5.0
2017-Oct-07 14:00N 43°26' W 002°40'2 3.9
2017-Oct-07 13:30N 43°25' W 002°43'0 0.0
2017-Oct-07 13:00N 43°25' W 002°43'0 0.0
2017-Oct-07 12:30N 43°25' W 002°43'1 2.3
2017-Oct-07 12:00N 43°26' W 002°43'4 4.2
2017-Oct-07 11:07N 43°27' W 002°48'1 5.0
2017-Oct-07 11:00N 43°27' W 002°49'7 5.0
2017-Oct-07 09:37N 43°26' W 002°58'1 5.9
2017-Oct-07 09:30N 43°25' W 002°59'3 5.9
2017-Oct-07 09:00N 43°23' W 003°02'3 5.6
2017-Oct-07 08:30N 43°20' W 003°02'  

Dump ship's entire track history